createdAt,value
2018-09-30T00:00:08.135Z,6.40
2018-09-30T00:02:36.757Z,6.27
2018-09-30T00:05:05.525Z,6.80
2018-09-30T00:07:34.261Z,6.83
2018-09-30T00:10:02.913Z,5.50
2018-09-30T00:12:31.512Z,5.83
2018-09-30T00:15:00.118Z,5.40
2018-09-30T00:17:28.939Z,5.60
2018-09-30T00:19:57.657Z,5.40
2018-09-30T00:22:26.637Z,5.53
2018-09-30T00:27:28.710Z,3.87
2018-09-30T00:29:57.308Z,4.50
2018-09-30T00:32:25.902Z,4.05
2018-09-30T00:34:54.468Z,4.20
2018-09-30T00:37:23.092Z,4.40
2018-09-30T00:39:51.776Z,4.50
2018-09-30T00:42:20.463Z,3.90
2018-09-30T00:44:49.219Z,3.97
2018-09-30T00:47:17.887Z,3.80
2018-09-30T00:49:46.587Z,3.63
2018-09-30T00:54:43.002Z,3.37
2018-09-30T00:57:11.623Z,3.93
2018-09-30T00:59:40.368Z,3.50
2018-09-30T01:02:09.176Z,4.03
2018-09-30T01:04:37.896Z,3.50
2018-09-30T01:07:07.058Z,3.43
2018-09-30T01:09:35.682Z,3.57
2018-09-30T01:12:04.257Z,3.23
2018-09-30T01:14:33.255Z,3.60
2018-09-30T01:17:01.921Z,3.13
2018-09-30T01:19:30.569Z,3.13
2018-09-30T01:21:59.334Z,3.37
2018-09-30T01:24:27.952Z,2.87
2018-09-30T01:26:56.652Z,2.77
2018-09-30T01:29:25.212Z,2.87
2018-09-30T01:34:21.703Z,3.80
2018-09-30T01:36:50.648Z,2.87
2018-09-30T01:39:19.080Z,2.87
2018-09-30T01:41:47.930Z,2.53
2018-09-30T01:44:16.517Z,2.70
2018-09-30T01:46:45.192Z,2.90
2018-09-30T01:49:14.565Z,2.60
2018-09-30T01:51:43.397Z,3.27
2018-09-30T01:54:12.129Z,2.47
2018-09-30T01:56:40.625Z,2.70
2018-09-30T01:59:09.240Z,2.20
2018-09-30T02:01:37.800Z,2.90
2018-09-30T02:04:06.370Z,2.20
2018-09-30T02:06:34.851Z,2.57
2018-09-30T02:09:03.909Z,2.70
2018-09-30T02:11:32.607Z,2.30
2018-09-30T02:14:02.612Z,2.60
2018-09-30T02:16:31.225Z,2.73
2018-09-30T02:19:00.192Z,2.77
2018-09-30T02:21:28.698Z,2.13
2018-09-30T02:23:57.368Z,2.70
2018-09-30T02:26:25.932Z,2.50
2018-09-30T02:28:54.612Z,2.60
2018-09-30T02:31:23.293Z,2.47
2018-09-30T02:33:52.012Z,2.33
2018-09-30T02:36:20.638Z,2.40
2018-09-30T02:38:49.273Z,2.67
2018-09-30T02:41:18.013Z,2.70
2018-09-30T02:43:46.811Z,2.20
2018-09-30T02:46:15.620Z,2.47
2018-09-30T02:48:44.415Z,2.43
2018-09-30T02:51:13.050Z,2.47
2018-09-30T02:53:41.774Z,2.50
2018-09-30T02:56:10.409Z,2.43
2018-09-30T02:58:39.184Z,2.20
2018-09-30T03:01:08.089Z,2.07
2018-09-30T03:03:36.720Z,2.20
2018-09-30T03:06:05.522Z,1.87
2018-09-30T03:08:39.524Z,2.57
2018-09-30T03:11:08.058Z,2.47
2018-09-30T03:13:36.803Z,2.60
2018-09-30T03:16:05.445Z,2.15
2018-09-30T03:18:34.123Z,2.60
2018-09-30T03:21:02.815Z,2.30
2018-09-30T03:23:31.510Z,2.00
2018-09-30T03:26:00.208Z,2.40
2018-09-30T03:28:28.808Z,2.33
2018-09-30T03:30:57.370Z,2.45
2018-09-30T03:33:26.071Z,2.00
2018-09-30T03:35:54.850Z,2.50
2018-09-30T03:38:23.443Z,2.17
2018-09-30T03:40:52.131Z,2.30
2018-09-30T03:43:20.683Z,2.20
2018-09-30T03:45:49.397Z,2.47
2018-09-30T03:48:18.166Z,2.13
2018-09-30T03:50:46.842Z,3.30
2018-09-30T03:53:15.460Z,2.43
2018-09-30T03:55:44.146Z,2.40
2018-09-30T03:58:13.115Z,2.70
2018-09-30T04:00:41.639Z,2.60
2018-09-30T04:03:10.172Z,2.03
2018-09-30T04:05:38.795Z,2.33
2018-09-30T04:08:07.729Z,2.20
2018-09-30T04:10:36.311Z,2.10
2018-09-30T04:13:05.089Z,2.00
2018-09-30T04:15:33.613Z,2.33
2018-09-30T04:18:02.119Z,2.47
2018-09-30T04:20:30.867Z,2.37
2018-09-30T04:22:59.529Z,2.10
2018-09-30T04:25:27.988Z,2.20
2018-09-30T04:27:56.611Z,2.10
2018-09-30T04:30:25.104Z,2.10
2018-09-30T04:32:53.720Z,2.10
2018-09-30T04:35:22.310Z,2.00
2018-09-30T04:37:50.984Z,1.80
2018-09-30T04:40:19.776Z,3.10
2018-09-30T04:42:48.327Z,2.20
2018-09-30T11:53:42.286Z,1.70
2018-09-30T12:11:00.117Z,1.20
2018-09-30T12:50:34.207Z,2.30
2018-09-30T17:52:53.789Z,6.40
2018-09-30T17:55:23.099Z,7.17
2018-09-30T17:57:52.386Z,6.23
2018-09-30T18:00:21.242Z,6.50
2018-09-30T18:02:49.932Z,5.60
2018-09-30T18:05:19.476Z,6.93
2018-09-30T18:07:48.494Z,6.10
2018-09-30T19:14:31.440Z,6.73
2018-09-30T19:17:01.515Z,7.30
2018-09-30T19:19:31.258Z,6.83
2018-09-30T19:22:03.451Z,7.60
2018-09-30T19:24:38.893Z,7.00
2018-09-30T19:27:11.247Z,6.87
2018-09-30T19:29:45.805Z,6.70
2018-09-30T19:32:15.300Z,6.90
2018-09-30T19:34:45.708Z,6.97
2018-09-30T19:37:21.858Z,6.07
2018-09-30T19:39:50.596Z,6.27
2018-09-30T19:42:19.437Z,6.20
2018-09-30T19:44:48.013Z,7.53
2018-09-30T19:47:16.717Z,7.20
2018-09-30T19:49:46.259Z,8.37
2018-09-30T19:52:15.119Z,7.70
2018-09-30T19:54:45.158Z,7.80
2018-09-30T19:57:15.298Z,7.93
2018-09-30T19:59:45.834Z,8.30
2018-09-30T20:02:15.454Z,7.50
2018-09-30T20:04:44.187Z,8.63
2018-09-30T20:07:12.822Z,8.03
2018-09-30T20:12:10.006Z,7.75
2018-09-30T20:14:39.950Z,6.70
2018-09-30T20:17:14.058Z,7.60
2018-09-30T20:19:42.840Z,8.97
2018-09-30T20:22:14.246Z,7.33
2018-09-30T20:24:43.038Z,8.00
2018-09-30T20:27:12.457Z,7.33
2018-09-30T20:29:43.531Z,7.50
2018-09-30T20:32:13.503Z,8.13
2018-09-30T20:34:43.588Z,8.03
2018-09-30T20:37:13.179Z,7.05
2018-09-30T20:39:44.302Z,6.30
2018-09-30T20:42:12.992Z,7.90
2018-09-30T20:44:42.190Z,6.45
2018-09-30T20:47:13.587Z,7.50
2018-09-30T20:52:34.705Z,6.90
2018-09-30T20:55:04.367Z,6.53
2018-09-30T20:57:32.915Z,6.90
2018-09-30T21:00:01.689Z,7.27
2018-09-30T21:02:30.236Z,8.53
2018-09-30T21:05:00.827Z,7.60
2018-09-30T21:07:29.459Z,7.40
2018-09-30T21:09:58.063Z,10.10
2018-09-30T21:12:26.620Z,12.10
2018-09-30T21:14:55.390Z,10.73
2018-09-30T21:17:23.948Z,9.50
2018-09-30T21:19:52.748Z,8.13
2018-09-30T21:22:21.454Z,6.97
2018-09-30T21:24:50.160Z,10.23
2018-09-30T21:27:18.909Z,10.00
2018-09-30T21:29:47.717Z,11.40
2018-09-30T21:32:16.601Z,12.10
2018-09-30T21:34:45.137Z,12.10
2018-09-30T21:37:13.754Z,11.07
2018-09-30T21:39:42.474Z,11.67
2018-09-30T21:42:11.120Z,9.27
2018-09-30T21:44:39.820Z,8.47
2018-09-30T21:47:08.735Z,7.57
2018-09-30T21:49:37.833Z,6.97
2018-09-30T21:52:06.459Z,6.57
2018-09-30T21:54:35.144Z,7.30
2018-09-30T21:57:03.949Z,8.50
2018-09-30T21:59:32.764Z,9.13
2018-09-30T22:02:01.502Z,10.97
2018-09-30T22:04:30.232Z,9.60
2018-09-30T22:06:59.024Z,9.83
2018-09-30T22:09:27.885Z,9.80
2018-09-30T22:11:56.750Z,8.30
2018-09-30T22:14:25.398Z,9.93
2018-09-30T22:16:54.160Z,10.63
2018-09-30T22:19:23.158Z,9.33
2018-09-30T22:21:51.824Z,8.03
2018-09-30T22:24:20.568Z,8.40
2018-09-30T22:26:49.177Z,5.90
2018-09-30T22:29:17.905Z,7.43
2018-09-30T22:31:46.759Z,7.37
2018-09-30T22:34:15.694Z,7.03
2018-09-30T22:36:44.430Z,8.30
2018-09-30T22:39:13.004Z,9.07
2018-09-30T22:41:41.637Z,5.40
2018-09-30T22:44:10.410Z,5.93
2018-09-30T22:46:38.946Z,5.53
2018-09-30T22:49:07.614Z,4.57
2018-09-30T22:51:36.193Z,6.27
2018-09-30T22:54:04.879Z,7.80
2018-09-30T22:56:33.424Z,8.93
2018-09-30T22:59:02.029Z,7.37
2018-09-30T23:01:30.760Z,7.77
2018-09-30T23:03:59.441Z,6.60
2018-09-30T23:06:28.146Z,6.50
2018-09-30T23:08:56.752Z,5.47
2018-09-30T23:11:25.448Z,7.00
2018-09-30T23:13:54.278Z,6.10
2018-09-30T23:16:23.003Z,5.63
2018-09-30T23:18:51.539Z,7.10
2018-09-30T23:21:20.182Z,9.47
2018-09-30T23:23:48.769Z,7.87
2018-09-30T23:26:17.377Z,8.00
2018-09-30T23:28:45.948Z,7.03
2018-09-30T23:31:14.836Z,6.60
2018-09-30T23:33:43.528Z,6.30
2018-09-30T23:36:12.356Z,5.90
2018-09-30T23:38:40.979Z,6.80
2018-09-30T23:41:09.826Z,7.20
2018-09-30T23:43:38.639Z,6.10
2018-09-30T23:46:07.495Z,5.63
2018-09-30T23:48:36.205Z,5.40
2018-09-30T23:51:05.165Z,5.57
2018-09-30T23:53:33.681Z,5.70
2018-09-30T23:56:02.618Z,5.93
2018-09-30T23:58:31.294Z,6.87
